createdAt,value
2019-03-01T00:03:00.041Z,56.3
2019-03-01T00:08:00.062Z,55.8
2019-03-01T00:13:00.062Z,56.7
2019-03-01T00:17:59.957Z,57.6
2019-03-01T00:23:00.172Z,57
2019-03-01T00:28:00.096Z,56.7
2019-03-01T00:32:59.950Z,57.1
2019-03-01T00:38:00.072Z,57.1
2019-03-01T00:43:00.083Z,57.5
2019-03-01T00:48:00.131Z,57.5
2019-03-01T00:53:00.080Z,58.7
2019-03-01T00:58:00.078Z,58.9
2019-03-01T01:02:59.956Z,58.6
2019-03-01T01:08:00.176Z,58.7
2019-03-01T01:13:00.088Z,59.1
2019-03-01T01:18:00.136Z,59.3
2019-03-01T01:22:59.982Z,60.2
2019-03-01T01:27:59.980Z,58.7
2019-03-01T01:33:00.082Z,58.8
2019-03-01T01:38:00.191Z,59.7
2019-03-01T01:43:00.105Z,59.8
2019-03-01T01:48:00.002Z,59.7
2019-03-01T01:53:00.172Z,59.5
2019-03-01T01:58:00.331Z,60.2
2019-03-01T02:03:00.100Z,60.3
2019-03-01T02:08:00.001Z,60.5
2019-03-01T02:12:59.949Z,59.5
2019-03-01T02:18:00.056Z,60.2
2019-03-01T02:23:00.182Z,60
2019-03-01T02:28:00.162Z,60
2019-03-01T02:33:00.010Z,61
2019-03-01T02:38:00.195Z,60.5
2019-03-01T02:43:00.052Z,60.3
2019-03-01T02:48:00.247Z,60.7
2019-03-01T02:53:00.181Z,62.2
2019-03-01T02:58:00.210Z,62.8
2019-03-01T03:03:00.273Z,62.3
2019-03-01T03:08:00.070Z,62.4
2019-03-01T03:13:00.205Z,63
2019-03-01T03:18:00.261Z,62.9
2019-03-01T03:23:00.181Z,63.9
2019-03-01T03:28:00.220Z,63.7
2019-03-01T03:33:00.529Z,64.2
2019-03-01T03:38:00.167Z,64.1
2019-03-01T03:43:00.077Z,64.1
2019-03-01T03:48:00.249Z,63.9
2019-03-01T03:53:00.286Z,64.1
2019-03-01T03:58:00.273Z,64.8
2019-03-01T04:03:00.274Z,64.9
2019-03-01T04:08:00.391Z,65.3
2019-03-01T04:13:00.079Z,64.9
2019-03-01T04:18:00.256Z,64.2
2019-03-01T04:23:00.301Z,64.1
2019-03-01T04:28:00.029Z,65.9
2019-03-01T04:33:00.269Z,65.6
2019-03-01T04:38:00.282Z,64.8
2019-03-01T04:43:00.221Z,64.8
2019-03-01T04:48:00.113Z,64.6
2019-03-01T04:53:00.288Z,64.7
2019-03-01T04:58:00.219Z,64.6
2019-03-01T05:03:00.247Z,65
2019-03-01T05:08:00.288Z,64.3
2019-03-01T05:13:00.325Z,64.8
2019-03-01T05:18:00.124Z,63.8
2019-03-01T05:23:00.129Z,64.6
2019-03-01T05:28:00.099Z,64.1
2019-03-01T05:33:00.108Z,63.6
2019-03-01T05:38:00.306Z,63.6
2019-03-01T05:43:00.114Z,64.1
2019-03-01T05:48:00.241Z,63.6
2019-03-01T05:53:00.136Z,63.4
2019-03-01T05:58:00.271Z,64.4
2019-03-01T06:03:00.131Z,63.4
2019-03-01T06:08:00.283Z,64.3
2019-03-01T06:13:00.115Z,68.2
2019-03-01T06:18:00.128Z,71.4
2019-03-01T06:23:00.145Z,73.5
2019-03-01T06:28:00.140Z,75.3
2019-03-01T06:33:00.342Z,75.9
2019-03-01T06:38:00.156Z,78.7
2019-03-01T06:43:00.161Z,79.5
2019-03-01T06:48:00.154Z,80.2
2019-03-01T06:53:00.167Z,81.4
2019-03-01T06:58:00.134Z,80.5
2019-03-01T07:03:00.163Z,81
2019-03-01T07:08:00.173Z,82.4
2019-03-01T07:13:00.169Z,81.8
2019-03-01T07:18:00.181Z,81.7
2019-03-01T07:23:00.395Z,80.6
2019-03-01T07:28:00.320Z,80.3
2019-03-01T07:33:00.173Z,82.1
2019-03-01T07:38:00.411Z,81.6
2019-03-01T07:43:00.238Z,80.9
2019-03-01T07:48:00.377Z,80.8
2019-03-01T07:53:04.780Z,81
2019-03-01T07:58:00.196Z,80.5
2019-03-01T08:03:00.367Z,80.8
2019-03-01T08:08:03.922Z,81.3
2019-03-01T08:13:00.446Z,80.5
2019-03-01T08:18:04.597Z,81.4
2019-03-01T08:23:01.977Z,80.7
2019-03-01T08:28:00.281Z,81.2
2019-03-01T08:33:06.682Z,80.3
2019-03-01T08:38:00.408Z,80.5
2019-03-01T08:43:00.208Z,80
2019-03-01T08:48:00.225Z,81.4
2019-03-01T08:53:00.222Z,80.8
2019-03-01T08:58:06.953Z,82
2019-03-01T09:03:00.372Z,82
2019-03-01T09:08:00.335Z,79.9
2019-03-01T09:13:00.216Z,80.3
2019-03-01T09:18:00.245Z,80.1
2019-03-01T09:23:21.073Z,78.1
2019-03-01T09:28:00.345Z,77.4
2019-03-01T09:33:00.494Z,77.4
2019-03-01T09:38:00.691Z,77.5
2019-03-01T09:43:01.390Z,77.7
2019-03-01T09:48:00.889Z,78.5
2019-03-01T09:53:00.410Z,77.2
2019-03-01T09:58:00.379Z,78
2019-03-01T10:03:00.259Z,78.2
2019-03-01T10:08:00.406Z,78.9
2019-03-01T10:13:00.441Z,79
2019-03-01T10:18:00.254Z,78.6
2019-03-01T10:23:00.398Z,77.8
2019-03-01T10:28:00.263Z,77.7
2019-03-01T10:33:00.490Z,76.4
2019-03-01T10:38:00.444Z,77.8
2019-03-01T10:43:00.440Z,76.9
2019-03-01T10:48:00.295Z,77.2
2019-03-01T10:53:00.591Z,76.7
2019-03-01T10:58:00.548Z,75.9
2019-03-01T11:03:00.297Z,74.9
2019-03-01T11:08:00.646Z,74.9
2019-03-01T11:13:00.438Z,75.2
2019-03-01T11:18:00.583Z,75.3
2019-03-01T11:23:00.308Z,73.6
2019-03-01T11:28:00.323Z,72.6
2019-03-01T11:33:00.264Z,73.9
2019-03-01T11:38:00.318Z,73.2
2019-03-01T11:43:00.281Z,71.9
2019-03-01T11:48:00.303Z,72
2019-03-01T11:53:00.516Z,72
2019-03-01T11:58:00.562Z,71.6
2019-03-01T12:03:00.371Z,71.5
2019-03-01T12:08:00.580Z,69.9
2019-03-01T12:13:00.318Z,69.9
2019-03-01T12:18:00.480Z,71
2019-03-01T12:23:00.543Z,70.4
2019-03-01T12:28:00.594Z,70.2
2019-03-01T12:33:00.489Z,68.6
2019-03-01T12:38:00.338Z,68.2
2019-03-01T12:43:00.364Z,68.6
2019-03-01T12:48:00.487Z,70.2
2019-03-01T12:53:00.353Z,70.6
2019-03-01T12:58:00.609Z,70.8
2019-03-01T13:03:00.369Z,70.1
2019-03-01T13:08:00.332Z,70.5
2019-03-01T13:13:03.454Z,70.5
2019-03-01T13:18:00.360Z,71.6
2019-03-01T13:23:04.596Z,72.2
2019-03-01T13:28:00.567Z,73.1
2019-03-01T13:33:03.577Z,72.1
2019-03-01T13:38:00.555Z,72.9
2019-03-01T13:43:00.526Z,72.5
2019-03-01T13:48:00.306Z,72.3
2019-03-01T13:53:00.540Z,72.3
2019-03-01T13:58:00.372Z,72.4
2019-03-01T14:03:00.604Z,72.5
2019-03-01T14:08:09.502Z,72.3
2019-03-01T14:13:00.421Z,71.8
2019-03-01T14:18:02.208Z,72.5
2019-03-01T14:23:00.422Z,72.8
2019-03-01T14:28:05.067Z,74
2019-03-01T14:33:00.385Z,73.1
2019-03-01T14:38:00.497Z,72.6
2019-03-01T14:43:00.462Z,73.5
2019-03-01T14:48:00.435Z,75.4
2019-03-01T14:53:00.680Z,75.5
2019-03-01T14:58:00.478Z,75.4
2019-03-01T15:03:00.523Z,76
2019-03-01T15:08:07.526Z,75.4
2019-03-01T15:13:00.394Z,75.5
2019-03-01T15:18:00.849Z,75.7
2019-03-01T15:23:00.506Z,75.3
2019-03-01T15:28:00.424Z,74.7
2019-03-01T15:33:00.419Z,74.8
2019-03-01T15:38:00.453Z,75.7
2019-03-01T15:43:00.442Z,76.2
2019-03-01T15:48:05.160Z,75.5
2019-03-01T15:53:00.470Z,75.8
2019-03-01T15:58:00.381Z,75.9
2019-03-01T16:03:00.437Z,75.9
2019-03-01T16:08:00.427Z,76.8
2019-03-01T16:13:00.473Z,76.9
2019-03-01T16:18:01.955Z,77
2019-03-01T16:23:00.462Z,76.5
2019-03-01T16:28:00.446Z,78
2019-03-01T16:33:00.468Z,77.6
2019-03-01T16:38:02.696Z,78.2
2019-03-01T16:43:00.457Z,78.9
2019-03-01T16:48:01.174Z,78.3
2019-03-01T16:53:05.481Z,77.5
2019-03-01T16:58:07.404Z,78.3
2019-03-01T17:03:00.444Z,77.9
2019-03-01T17:08:06.159Z,78.7
2019-03-01T17:13:00.472Z,78.1
2019-03-01T17:18:00.566Z,78.2
2019-03-01T17:23:03.889Z,77.7
2019-03-01T17:28:00.492Z,77
2019-03-01T17:33:00.497Z,77
2019-03-01T17:38:00.633Z,77.1
2019-03-01T17:43:00.675Z,77.6
2019-03-01T17:48:00.652Z,77.3
2019-03-01T17:53:00.651Z,77.2
2019-03-01T17:58:00.696Z,77.4
2019-03-01T18:03:00.733Z,77.5
2019-03-01T18:08:05.090Z,76.9
2019-03-01T18:13:00.661Z,77.5
2019-03-01T18:18:00.733Z,76.7
2019-03-01T18:23:03.281Z,77.7
2019-03-01T18:28:00.766Z,77.7
2019-03-01T18:33:00.521Z,77.5
2019-03-01T18:38:00.776Z,77.1
2019-03-01T18:43:00.695Z,76.9
2019-03-01T18:48:00.741Z,77.6
2019-03-01T18:53:00.530Z,77.5
2019-03-01T18:58:00.963Z,77.3
2019-03-01T19:03:04.319Z,78.6
2019-03-01T19:08:06.041Z,78.2
2019-03-01T19:13:00.602Z,78.1
2019-03-01T19:18:00.596Z,78.6
2019-03-01T19:23:00.768Z,78.6
2019-03-01T19:28:00.749Z,78.7
2019-03-01T19:33:03.404Z,78.6
2019-03-01T19:38:00.977Z,79.1
2019-03-01T19:43:00.888Z,78.4
2019-03-01T19:48:03.881Z,78.7
2019-03-01T19:53:01.763Z,79.4
2019-03-01T19:58:02.088Z,79
2019-03-01T20:03:02.465Z,78.8
2019-03-01T20:08:00.779Z,78.4
2019-03-01T20:13:00.649Z,79.2
2019-03-01T20:18:00.791Z,78.5
2019-03-01T20:23:01.051Z,79
2019-03-01T20:28:00.758Z,78.3
2019-03-01T20:33:00.823Z,78.3
2019-03-01T20:38:04.893Z,78.7
2019-03-01T20:43:07.190Z,78.8
2019-03-01T20:48:01.000Z,78.8
2019-03-01T20:53:00.618Z,78.4
2019-03-01T20:58:04.304Z,77.9
2019-03-01T21:03:00.965Z,78.4
2019-03-01T21:08:00.655Z,78.2
2019-03-01T21:13:00.796Z,76.9
2019-03-01T21:18:00.653Z,76.9
2019-03-01T21:23:00.624Z,77.5
2019-03-01T21:28:01.987Z,77.5
2019-03-01T21:33:00.979Z,77.9
2019-03-01T21:38:00.636Z,77.2
2019-03-01T21:43:00.862Z,77.8
2019-03-01T21:48:01.190Z,77.1
2019-03-01T21:53:05.412Z,77.3
2019-03-01T21:58:06.505Z,77.7
2019-03-01T22:03:00.921Z,79.1
2019-03-01T22:08:00.933Z,78.3
2019-03-01T22:13:01.819Z,79.1
2019-03-01T22:18:00.825Z,78.8
2019-03-01T22:23:00.656Z,79
2019-03-01T22:28:01.928Z,78
2019-03-01T22:33:00.661Z,78.3
2019-03-01T22:38:05.508Z,78.2
2019-03-01T22:43:00.656Z,79.3
2019-03-01T22:48:00.929Z,79.2
2019-03-01T22:53:06.499Z,78.7
2019-03-01T22:58:01.898Z,79.4
2019-03-01T23:03:00.825Z,78.8
2019-03-01T23:08:01.360Z,78.8
2019-03-01T23:13:00.663Z,78.4
2019-03-01T23:18:05.625Z,79.5
2019-03-01T23:23:00.871Z,79.3
2019-03-01T23:28:09.175Z,79.1
2019-03-01T23:33:00.652Z,78.9
2019-03-01T23:38:00.871Z,78.6
2019-03-01T23:43:00.866Z,79.3
2019-03-01T23:48:00.839Z,79.2
2019-03-01T23:53:00.681Z,78.8
2019-03-01T23:58:06.444Z,79.7
